sensor_id;sensor_type;location;lat;lon;timestamp;temperature;humidity
9941;DHT22;5009;50.656;7.188;2023-02-15T05:01:01;1.40;99.90
9941;DHT22;5009;50.656;7.188;2023-02-15T05:03:27;1.40;99.90
9941;DHT22;5009;50.656;7.188;2023-02-15T05:05:53;1.40;99.90
9941;DHT22;5009;50.656;7.188;2023-02-15T05:08:18;1.40;99.90
9941;DHT22;5009;50.656;7.188;2023-02-15T05:10:44;1.40;99.90
9941;DHT22;5009;50.656;7.188;2023-02-15T05:13:09;1.40;99.90
9941;DHT22;5009;50.656;7.188;2023-02-15T05:15:35;1.40;99.90
9941;DHT22;5009;50.656;7.188;2023-02-15T05:18:00;1.40;99.90
9941;DHT22;5009;50.656;7.188;2023-02-15T05:20:27;1.40;99.90
9941;DHT22;5009;50.656;7.188;2023-02-15T05:22:55;1.40;99.90
9941;DHT22;5009;50.656;7.188;2023-02-15T05:25:20;1.40;99.90
9941;DHT22;5009;50.656;7.188;2023-02-15T05:28:04;1.40;99.90
9941;DHT22;5009;50.656;7.188;2023-02-15T05:33:28;1.40;99.90
9941;DHT22;5009;50.656;7.188;2023-02-15T05:35:54;1.40;99.90
9941;DHT22;5009;50.656;7.188;2023-02-15T05:38:19;1.40;99.90
9941;DHT22;5009;50.656;7.188;2023-02-15T05:40:45;1.40;99.90
9941;DHT22;5009;50.656;7.188;2023-02-15T05:43:11;1.40;99.90
9941;DHT22;5009;50.656;7.188;2023-02-15T05:45:36;1.40;99.90
9941;DHT22;5009;50.656;7.188;2023-02-15T05:48:02;1.30;99.90
9941;DHT22;5009;50.656;7.188;2023-02-15T05:50:27;1.40;99.90
9941;DHT22;5009;50.656;7.188;2023-02-15T05:52:53;1.40;99.90
9941;DHT22;5009;50.656;7.188;2023-02-15T05:55:18;1.40;99.90
9941;DHT22;5009;50.656;7.188;2023-02-15T05:57:44;1.40;99.90
9941;DHT22;5009;50.656;7.188;2023-02-15T06:00:11;1.40;99.90
9941;DHT22;5009;50.656;7.188;2023-02-15T06:02:37;1.40;99.90
9941;DHT22;5009;50.656;7.188;2023-02-15T06:05:04;1.50;99.90
9941;DHT22;5009;50.656;7.188;2023-02-15T06:07:30;1.50;99.90
9941;DHT22;5009;50.656;7.188;2023-02-15T06:09:56;1.50;99.90
9941;DHT22;5009;50.656;7.188;2023-02-15T06:12:21;1.40;99.90
9941;DHT22;5009;50.656;7.188;2023-02-15T06:14:47;1.40;99.90
9941;DHT22;5009;50.656;7.188;2023-02-15T06:17:12;1.40;99.90
9941;DHT22;5009;50.656;7.188;2023-02-15T06:19:38;1.40;99.90
9941;DHT22;5009;50.656;7.188;2023-02-15T06:22:04;1.30;99.90
9941;DHT22;5009;50.656;7.188;2023-02-15T06:24:29;1.40;99.90
9941;DHT22;5009;50.656;7.188;2023-02-15T06:26:55;1.30;99.90
9941;DHT22;5009;50.656;7.188;2023-02-15T06:29:20;1.30;99.90
9941;DHT22;5009;50.656;7.188;2023-02-15T06:31:46;1.30;99.90
9941;DHT22;5009;50.656;7.188;2023-02-15T06:34:11;1.30;99.90
9941;DHT22;5009;50.656;7.188;2023-02-15T06:36:37;1.30;99.90
9941;DHT22;5009;50.656;7.188;2023-02-15T06:39:03;1.30;99.90
9941;DHT22;5009;50.656;7.188;2023-02-15T06:41:28;1.30;99.90
9941;DHT22;5009;50.656;7.188;2023-02-15T06:43:54;1.30;99.90
9941;DHT22;5009;50.656;7.188;2023-02-15T06:46:19;1.20;99.90
9941;DHT22;5009;50.656;7.188;2023-02-15T06:48:45;1.30;99.90
9941;DHT22;5009;50.656;7.188;2023-02-15T06:51:11;1.30;99.90
9941;DHT22;5009;50.656;7.188;2023-02-15T06:53:36;1.20;99.90
9941;DHT22;5009;50.656;7.188;2023-02-15T06:56:03;1.30;99.90
9941;DHT22;5009;50.656;7.188;2023-02-15T06:58:32;1.30;99.90
9941;DHT22;5009;50.656;7.188;2023-02-15T07:02:57;1.30;99.90
9941;DHT22;5009;50.656;7.188;2023-02-15T07:05:24;1.40;99.90
9941;DHT22;5009;50.656;7.188;2023-02-15T07:07:50;1.40;99.90
9941;DHT22;5009;50.656;7.188;2023-02-15T07:10:16;1.40;99.90
9941;DHT22;5009;50.656;7.188;2023-02-15T07:12:41;1.40;99.90
9941;DHT22;5009;50.656;7.188;2023-02-15T07:15:13;1.50;99.90
9941;DHT22;5009;50.656;7.188;2023-02-15T07:17:39;1.50;99.90
9941;DHT22;5009;50.656;7.188;2023-02-15T07:20:07;1.50;99.90
9941;DHT22;5009;50.656;7.188;2023-02-15T07:22:34;1.60;99.90
9941;DHT22;5009;50.656;7.188;2023-02-15T07:25:02;1.60;99.90
9941;DHT22;5009;50.656;7.188;2023-02-15T07:27:27;1.70;99.90
9941;DHT22;5009;50.656;7.188;2023-02-15T07:29:53;1.80;99.90
9941;DHT22;5009;50.656;7.188;2023-02-15T07:32:18;1.90;99.90
9941;DHT22;5009;50.656;7.188;2023-02-15T07:34:44;2.10;99.90
9941;DHT22;5009;50.656;7.188;2023-02-15T07:37:09;2.40;99.90
9941;DHT22;5009;50.656;7.188;2023-02-15T07:39:35;2.60;99.90
9941;DHT22;5009;50.656;7.188;2023-02-15T07:42:01;3.30;99.90
9941;DHT22;5009;50.656;7.188;2023-02-15T07:44:26;3.90;99.90
9941;DHT22;5009;50.656;7.188;2023-02-15T07:46:52;4.70;99.90
9941;DHT22;5009;50.656;7.188;2023-02-15T07:49:17;5.70;99.90
9941;DHT22;5009;50.656;7.188;2023-02-15T07:51:43;6.90;99.90
9941;DHT22;5009;50.656;7.188;2023-02-15T07:54:08;8.20;99.90
9941;DHT22;5009;50.656;7.188;2023-02-15T07:56:34;9.00;95.00
9941;DHT22;5009;50.656;7.188;2023-02-15T07:58:59;8.00;92.70
9941;DHT22;5009;50.656;7.188;2023-02-15T08:01:31;8.80;94.50
9941;DHT22;5009;50.656;7.188;2023-02-15T08:03:57;9.10;92.80
9941;DHT22;5009;50.656;7.188;2023-02-15T08:06:25;10.40;90.00
9941;DHT22;5009;50.656;7.188;2023-02-15T08:08:52;10.70;84.80
9941;DHT22;5009;50.656;7.188;2023-02-15T08:13:53;11.80;77.70
9941;DHT22;5009;50.656;7.188;2023-02-15T08:16:43;12.30;76.60
9941;DHT22;5009;50.656;7.188;2023-02-15T08:19:12;12.60;73.80
9941;DHT22;5009;50.656;7.188;2023-02-15T08:21:42;11.60;74.90
9941;DHT22;5009;50.656;7.188;2023-02-15T08:24:10;10.50;78.30
9941;DHT22;5009;50.656;7.188;2023-02-15T08:26:36;9.30;84.00
9941;DHT22;5009;50.656;7.188;2023-02-15T08:29:03;9.00;89.30
9941;DHT22;5009;50.656;7.188;2023-02-15T08:31:29;8.30;91.70
9941;DHT22;5009;50.656;7.188;2023-02-15T08:33:56;8.20;92.50
9941;DHT22;5009;50.656;7.188;2023-02-15T08:36:28;8.00;93.00
9941;DHT22;5009;50.656;7.188;2023-02-15T08:38:56;7.40;94.10
9941;DHT22;5009;50.656;7.188;2023-02-15T08:41:27;7.30;96.70
9941;DHT22;5009;50.656;7.188;2023-02-15T08:43:57;7.10;97.30
9941;DHT22;5009;50.656;7.188;2023-02-15T08:46:25;7.00;96.70
9941;DHT22;5009;50.656;7.188;2023-02-15T08:48:51;7.10;98.10
9941;DHT22;5009;50.656;7.188;2023-02-15T08:51:27;7.10;97.30
9941;DHT22;5009;50.656;7.188;2023-02-15T08:53:56;6.90;98.30
9941;DHT22;5009;50.656;7.188;2023-02-15T08:56:26;7.20;98.50
9941;DHT22;5009;50.656;7.188;2023-02-15T08:58:53;7.20;97.80
9941;DHT22;5009;50.656;7.188;2023-02-15T09:01:22;7.20;97.10
9941;DHT22;5009;50.656;7.188;2023-02-15T09:03:50;7.00;96.70
9941;DHT22;5009;50.656;7.188;2023-02-15T09:06:19;6.90;96.90
9941;DHT22;5009;50.656;7.188;2023-02-15T09:08:44;7.10;97.80
9941;DHT22;5009;50.656;7.188;2023-02-15T09:11:12;7.00;97.30
9941;DHT22;5009;50.656;7.188;2023-02-15T09:13:39;6.90;96.80
9941;DHT22;5009;50.656;7.188;2023-02-15T09:16:07;6.80;97.60
9941;DHT22;5009;50.656;7.188;2023-02-15T09:18:36;7.00;97.40
9941;DHT22;5009;50.656;7.188;2023-02-15T09:21:10;7.10;97.40
9941;DHT22;5009;50.656;7.188;2023-02-15T09:23:39;7.10;97.00
9941;DHT22;5009;50.656;7.188;2023-02-15T09:26:07;7.10;96.60
9941;DHT22;5009;50.656;7.188;2023-02-15T09:28:33;7.00;97.00
9941;DHT22;5009;50.656;7.188;2023-02-15T09:31:06;7.00;97.10
9941;DHT22;5009;50.656;7.188;2023-02-15T09:33:34;7.10;97.60
9941;DHT22;5009;50.656;7.188;2023-02-15T09:36:00;6.80;97.40
9941;DHT22;5009;50.656;7.188;2023-02-15T09:38:26;6.90;97.60
9941;DHT22;5009;50.656;7.188;2023-02-15T09:41:13;6.80;97.60
9941;DHT22;5009;50.656;7.188;2023-02-15T09:54:49;7.20;96.30
9941;DHT22;5009;50.656;7.188;2023-02-15T09:57:34;7.20;96.70
9941;DHT22;5009;50.656;7.188;2023-02-15T10:02:37;7.10;97.70
9941;DHT22;5009;50.656;7.188;2023-02-15T10:10:49;7.40;97.30
9941;DHT22;5009;50.656;7.188;2023-02-15T10:13:23;7.50;96.80
9941;DHT22;5009;50.656;7.188;2023-02-15T10:16:14;7.40;97.00
9941;DHT22;5009;50.656;7.188;2023-02-15T10:24:28;7.00;97.00
9941;DHT22;5009;50.656;7.188;2023-02-15T10:27:01;6.60;98.00
9941;DHT22;5009;50.656;7.188;2023-02-15T10:29:36;6.60;98.60
9941;DHT22;5009;50.656;7.188;2023-02-15T10:34:50;6.30;99.90
9941;DHT22;5009;50.656;7.188;2023-02-15T10:38:06;6.30;99.90
9941;DHT22;5009;50.656;7.188;2023-02-15T11:01:26;6.70;99.30
9941;DHT22;5009;50.656;7.188;2023-02-15T11:07:19;6.80;99.90
9941;DHT22;5009;50.656;7.188;2023-02-15T11:09:49;6.90;99.10
9941;DHT22;5009;50.656;7.188;2023-02-15T11:12:23;6.90;99.20
9941;DHT22;5009;50.656;7.188;2023-02-15T11:15:01;6.90;99.60
9941;DHT22;5009;50.656;7.188;2023-02-15T11:17:35;7.00;99.60
9941;DHT22;5009;50.656;7.188;2023-02-15T11:22:40;7.20;98.80
9941;DHT22;5009;50.656;7.188;2023-02-15T11:25:21;7.10;99.10
9941;DHT22;5009;50.656;7.188;2023-02-15T11:27:49;7.20;99.20
9941;DHT22;5009;50.656;7.188;2023-02-15T11:30:27;7.30;98.80
9941;DHT22;5009;50.656;7.188;2023-02-15T11:32:57;7.30;98.40
9941;DHT22;5009;50.656;7.188;2023-02-15T11:35:37;7.30;98.20
9941;DHT22;5009;50.656;7.188;2023-02-15T11:40:47;7.60;98.30
9941;DHT22;5009;50.656;7.188;2023-02-15T11:43:19;7.60;98.30
9941;DHT22;5009;50.656;7.188;2023-02-15T11:45:46;7.70;97.80
9941;DHT22;5009;50.656;7.188;2023-02-15T11:48:14;7.70;97.30
9941;DHT22;5009;50.656;7.188;2023-02-15T11:50:41;7.70;97.20
9941;DHT22;5009;50.656;7.188;2023-02-15T11:53:19;7.80;97.20
9941;DHT22;5009;50.656;7.188;2023-02-15T11:55:53;7.80;96.70
9941;DHT22;5009;50.656;7.188;2023-02-15T12:01:23;7.80;97.10
9941;DHT22;5009;50.656;7.188;2023-02-15T12:03:50;7.90;96.90
9941;DHT22;5009;50.656;7.188;2023-02-15T12:06:33;8.00;96.60
9941;DHT22;5009;50.656;7.188;2023-02-15T12:09:20;8.00;96.00
9941;DHT22;5009;50.656;7.188;2023-02-15T12:11:46;8.10;95.80
9941;DHT22;5009;50.656;7.188;2023-02-15T12:14:13;8.10;96.00
9941;DHT22;5009;50.656;7.188;2023-02-15T12:16:46;8.10;95.70
9941;DHT22;5009;50.656;7.188;2023-02-15T12:19:32;8.20;95.90
9941;DHT22;5009;50.656;7.188;2023-02-15T12:21:59;8.30;95.90
9941;DHT22;5009;50.656;7.188;2023-02-15T12:24:42;8.30;95.70
9941;DHT22;5009;50.656;7.188;2023-02-15T12:27:24;8.30;95.60
9941;DHT22;5009;50.656;7.188;2023-02-15T12:29:56;8.30;95.60
9941;DHT22;5009;50.656;7.188;2023-02-15T12:32:56;8.30;95.30
9941;DHT22;5009;50.656;7.188;2023-02-15T12:35:29;8.30;95.80
9941;DHT22;5009;50.656;7.188;2023-02-15T12:38:42;8.30;95.70
9941;DHT22;5009;50.656;7.188;2023-02-15T12:41:38;8.40;95.90
9941;DHT22;5009;50.656;7.188;2023-02-15T12:43:44;8.40;95.50
9941;DHT22;5009;50.656;7.188;2023-02-15T12:46:20;8.40;95.00
9941;DHT22;5009;50.656;7.188;2023-02-15T12:48:46;8.40;95.20
9941;DHT22;5009;50.656;7.188;2023-02-15T12:51:14;8.40;95.40
9941;DHT22;5009;50.656;7.188;2023-02-15T12:53:40;8.40;95.50
9941;DHT22;5009;50.656;7.188;2023-02-15T12:56:08;8.50;95.70
9941;DHT22;5009;50.656;7.188;2023-02-15T12:58:39;8.50;95.80
9941;DHT22;5009;50.656;7.188;2023-02-15T13:04:06;8.60;95.70
9941;DHT22;5009;50.656;7.188;2023-02-15T13:06:49;8.60;95.50
9941;DHT22;5009;50.656;7.188;2023-02-15T13:12:10;8.60;95.40
9941;DHT22;5009;50.656;7.188;2023-02-15T13:14:37;8.70;95.70
9941;DHT22;5009;50.656;7.188;2023-02-15T13:17:04;8.80;95.70
9941;DHT22;5009;50.656;7.188;2023-02-15T13:19:36;8.80;95.60
9941;DHT22;5009;50.656;7.188;2023-02-15T13:22:14;8.90;95.20
9941;DHT22;5009;50.656;7.188;2023-02-15T13:27:16;9.00;94.80
9941;DHT22;5009;50.656;7.188;2023-02-15T13:29:46;9.10;94.60
9941;DHT22;5009;50.656;7.188;2023-02-15T13:32:25;9.10;94.70
9941;DHT22;5009;50.656;7.188;2023-02-15T13:34:59;9.10;94.90
9941;DHT22;5009;50.656;7.188;2023-02-15T13:40:25;9.10;94.60
9941;DHT22;5009;50.656;7.188;2023-02-15T13:43:03;9.10;94.40
9941;DHT22;5009;50.656;7.188;2023-02-15T13:46:33;9.10;94.70
9941;DHT22;5009;50.656;7.188;2023-02-15T14:16:24;9.70;94.40
9941;DHT22;5009;50.656;7.188;2023-02-15T14:19:16;9.70;94.20
9941;DHT22;5009;50.656;7.188;2023-02-15T14:21:59;9.70;94.10
9941;DHT22;5009;50.656;7.188;2023-02-15T14:29:57;9.80;93.90
9941;DHT22;5009;50.656;7.188;2023-02-15T14:32:34;9.90;94.10
9941;DHT22;5009;50.656;7.188;2023-02-15T14:35:13;9.90;94.10
9941;DHT22;5009;50.656;7.188;2023-02-15T14:37:47;9.90;94.10
9941;DHT22;5009;50.656;7.188;2023-02-15T14:43:17;9.90;94.30
9941;DHT22;5009;50.656;7.188;2023-02-15T14:48:43;10.00;93.30
9941;DHT22;5009;50.656;7.188;2023-02-15T14:51:10;10.00;93.40
9941;DHT22;5009;50.656;7.188;2023-02-15T14:53:56;10.00;93.50
9941;DHT22;5009;50.656;7.188;2023-02-15T14:56:23;10.00;93.60
9941;DHT22;5009;50.656;7.188;2023-02-15T15:01:16;10.00;93.50
9941;DHT22;5009;50.656;7.188;2023-02-15T15:03:52;10.00;93.50
9941;DHT22;5009;50.656;7.188;2023-02-15T15:06:44;10.00;93.60
9941;DHT22;5009;50.656;7.188;2023-02-15T15:09:26;10.00;93.50
9941;DHT22;5009;50.656;7.188;2023-02-15T15:11:54;10.00;93.30
9941;DHT22;5009;50.656;7.188;2023-02-15T15:17:02;10.00;93.40
9941;DHT22;5009;50.656;7.188;2023-02-15T15:22:27;10.10;93.40
9941;DHT22;5009;50.656;7.188;2023-02-15T15:38:26;10.10;93.20
9941;DHT22;5009;50.656;7.188;2023-02-15T15:44:19;10.10;93.20
9941;DHT22;5009;50.656;7.188;2023-02-15T15:47:00;10.10;93.40
9941;DHT22;5009;50.656;7.188;2023-02-15T15:49:32;10.10;93.30
9941;DHT22;5009;50.656;7.188;2023-02-15T15:52:16;10.10;93.30
9941;DHT22;5009;50.656;7.188;2023-02-15T15:54:42;10.10;93.30
9941;DHT22;5009;50.656;7.188;2023-02-15T15:57:30;10.10;93.30
9941;DHT22;5009;50.656;7.188;2023-02-15T15:59:58;10.10;93.30
9941;DHT22;5009;50.656;7.188;2023-02-15T16:02:27;10.10;93.30
9941;DHT22;5009;50.656;7.188;2023-02-15T16:04:53;10.10;93.30
9941;DHT22;5009;50.656;7.188;2023-02-15T16:12:28;10.10;93.20
9941;DHT22;5009;50.656;7.188;2023-02-15T16:14:54;10.10;93.20
9941;DHT22;5009;50.656;7.188;2023-02-15T16:17:26;10.10;93.40
9941;DHT22;5009;50.656;7.188;2023-02-15T16:23:26;10.00;93.20
9941;DHT22;5009;50.656;7.188;2023-02-15T16:28:25;9.90;94.00
9941;DHT22;5009;50.656;7.188;2023-02-15T16:31:11;9.90;94.00
9941;DHT22;5009;50.656;7.188;2023-02-15T16:33:39;9.90;94.10
9941;DHT22;5009;50.656;7.188;2023-02-15T16:36:06;9.80;94.10
9941;DHT22;5009;50.656;7.188;2023-02-15T16:41:14;9.70;94.40
9941;DHT22;5009;50.656;7.188;2023-02-15T16:43:44;9.70;94.50
9941;DHT22;5009;50.656;7.188;2023-02-15T16:46:14;9.70;94.50
9941;DHT22;5009;50.656;7.188;2023-02-15T16:48:46;9.60;94.60
9941;DHT22;5009;50.656;7.188;2023-02-15T16:51:21;9.60;94.60
9941;DHT22;5009;50.656;7.188;2023-02-15T16:53:56;9.50;94.60
9941;DHT22;5009;50.656;7.188;2023-02-15T16:56:27;9.50;94.60
9941;DHT22;5009;50.656;7.188;2023-02-15T16:58:57;9.50;94.60
9941;DHT22;5009;50.656;7.188;2023-02-15T17:01:27;9.50;94.80
9941;DHT22;5009;50.656;7.188;2023-02-15T17:04:12;9.40;94.80
9941;DHT22;5009;50.656;7.188;2023-02-15T17:06:38;9.40;94.80
9941;DHT22;5009;50.656;7.188;2023-02-15T17:09:06;9.40;95.20
9941;DHT22;5009;50.656;7.188;2023-02-15T17:11:40;9.30;95.20
9941;DHT22;5009;50.656;7.188;2023-02-15T17:16:40;9.20;95.10
9941;DHT22;5009;50.656;7.188;2023-02-15T17:19:24;9.20;94.90
9941;DHT22;5009;50.656;7.188;2023-02-15T17:22:00;9.20;94.70
9941;DHT22;5009;50.656;7.188;2023-02-15T17:24:41;9.20;94.70
9941;DHT22;5009;50.656;7.188;2023-02-15T17:27:20;9.20;94.60
9941;DHT22;5009;50.656;7.188;2023-02-15T17:29:50;9.20;94.70
9941;DHT22;5009;50.656;7.188;2023-02-15T17:32:23;9.20;94.60
9941;DHT22;5009;50.656;7.188;2023-02-15T17:37:30;9.10;94.70
9941;DHT22;5009;50.656;7.188;2023-02-15T17:39:57;9.10;94.60
9941;DHT22;5009;50.656;7.188;2023-02-15T17:42:23;9.00;94.60
9941;DHT22;5009;50.656;7.188;2023-02-15T17:44:49;9.00;94.70
9941;DHT22;5009;50.656;7.188;2023-02-15T17:47:18;9.00;94.60
9941;DHT22;5009;50.656;7.188;2023-02-15T17:49:44;9.00;94.70
9941;DHT22;5009;50.656;7.188;2023-02-15T17:52:13;9.00;94.80
9941;DHT22;5009;50.656;7.188;2023-02-15T17:54:40;9.00;94.90
9941;DHT22;5009;50.656;7.188;2023-02-15T17:57:23;8.90;94.90
9941;DHT22;5009;50.656;7.188;2023-02-15T17:59:51;8.90;95.00
9941;DHT22;5009;50.656;7.188;2023-02-15T18:02:35;8.80;95.10
9941;DHT22;5009;50.656;7.188;2023-02-15T18:05:20;8.80;95.40
9941;DHT22;5009;50.656;7.188;2023-02-15T18:08:10;8.70;95.60
9941;DHT22;5009;50.656;7.188;2023-02-15T18:10:54;8.70;95.90
9941;DHT22;5009;50.656;7.188;2023-02-15T18:13:38;8.70;95.80
9941;DHT22;5009;50.656;7.188;2023-02-15T18:16:04;8.60;96.10
9941;DHT22;5009;50.656;7.188;2023-02-15T18:18:30;8.60;96.20
9941;DHT22;5009;50.656;7.188;2023-02-15T18:20:55;8.50;96.30
9941;DHT22;5009;50.656;7.188;2023-02-15T18:23:21;8.50;96.30
9941;DHT22;5009;50.656;7.188;2023-02-15T18:25:46;8.40;96.40
9941;DHT22;5009;50.656;7.188;2023-02-15T18:28:12;8.40;96.40
9941;DHT22;5009;50.656;7.188;2023-02-15T18:30:39;8.40;96.50
9941;DHT22;5009;50.656;7.188;2023-02-15T18:33:32;8.40;96.50
9941;DHT22;5009;50.656;7.188;2023-02-15T18:36:00;8.40;96.50
9941;DHT22;5009;50.656;7.188;2023-02-15T18:38:26;8.30;96.30
9941;DHT22;5009;50.656;7.188;2023-02-15T18:40:52;8.30;96.60
9941;DHT22;5009;50.656;7.188;2023-02-15T18:43:17;8.30;96.60
9941;DHT22;5009;50.656;7.188;2023-02-15T18:45:43;8.30;96.70
9941;DHT22;5009;50.656;7.188;2023-02-15T18:48:08;8.30;96.80
9941;DHT22;5009;50.656;7.188;2023-02-15T18:50:36;8.20;96.90
9941;DHT22;5009;50.656;7.188;2023-02-15T18:53:03;8.20;96.90
9941;DHT22;5009;50.656;7.188;2023-02-15T18:55:29;8.20;97.10
9941;DHT22;5009;50.656;7.188;2023-02-15T18:58:00;8.10;97.20
9941;DHT22;5009;50.656;7.188;2023-02-15T19:00:31;8.20;97.30
9941;DHT22;5009;50.656;7.188;2023-02-15T19:02:57;8.10;97.20
9941;DHT22;5009;50.656;7.188;2023-02-15T19:05:24;8.10;97.30
9941;DHT22;5009;50.656;7.188;2023-02-15T19:07:54;8.10;97.30
9941;DHT22;5009;50.656;7.188;2023-02-15T19:10:22;8.10;97.30
9941;DHT22;5009;50.656;7.188;2023-02-15T19:12:49;8.00;97.50
9941;DHT22;5009;50.656;7.188;2023-02-15T19:15:17;8.00;97.80
9941;DHT22;5009;50.656;7.188;2023-02-15T19:17:43;7.90;97.80
9941;DHT22;5009;50.656;7.188;2023-02-15T19:20:29;7.90;98.00
9941;DHT22;5009;50.656;7.188;2023-02-15T19:22:55;7.90;98.20
9941;DHT22;5009;50.656;7.188;2023-02-15T19:25:24;7.80;98.50
9941;DHT22;5009;50.656;7.188;2023-02-15T19:27:52;7.80;98.70
9941;DHT22;5009;50.656;7.188;2023-02-15T19:30:23;7.80;98.70
9941;DHT22;5009;50.656;7.188;2023-02-15T19:32:51;7.70;98.70
9941;DHT22;5009;50.656;7.188;2023-02-15T19:35:19;7.70;98.90
9941;DHT22;5009;50.656;7.188;2023-02-15T19:37:49;7.70;98.90
9941;DHT22;5009;50.656;7.188;2023-02-15T19:40:27;7.70;99.10
9941;DHT22;5009;50.656;7.188;2023-02-15T19:42:53;7.70;99.10
9941;DHT22;5009;50.656;7.188;2023-02-15T19:45:22;7.60;99.40
9941;DHT22;5009;50.656;7.188;2023-02-15T19:47:48;7.60;99.60
9941;DHT22;5009;50.656;7.188;2023-02-15T19:50:15;7.60;99.40
9941;DHT22;5009;50.656;7.188;2023-02-15T19:52:41;7.60;99.30
9941;DHT22;5009;50.656;7.188;2023-02-15T19:55:24;7.60;99.60
9941;DHT22;5009;50.656;7.188;2023-02-15T19:57:51;7.50;99.90
9941;DHT22;5009;50.656;7.188;2023-02-15T20:00:20;7.40;99.90
9941;DHT22;5009;50.656;7.188;2023-02-15T20:02:47;7.30;99.90
9941;DHT22;5009;50.656;7.188;2023-02-15T20:05:12;7.30;99.90
9941;DHT22;5009;50.656;7.188;2023-02-15T20:07:39;7.20;99.90
9941;DHT22;5009;50.656;7.188;2023-02-15T20:10:26;7.20;99.90
9941;DHT22;5009;50.656;7.188;2023-02-15T20:12:51;7.10;99.90
9941;DHT22;5009;50.656;7.188;2023-02-15T20:15:30;6.90;99.90
9941;DHT22;5009;50.656;7.188;2023-02-15T20:17:57;6.80;99.90
9941;DHT22;5009;50.656;7.188;2023-02-15T20:21:12;6.80;99.90
9941;DHT22;5009;50.656;7.188;2023-02-15T20:23:33;6.80;99.90
9941;DHT22;5009;50.656;7.188;2023-02-15T20:26:01;6.80;99.90
9941;DHT22;5009;50.656;7.188;2023-02-15T20:28:31;6.70;99.90
9941;DHT22;5009;50.656;7.188;2023-02-15T20:30:57;6.70;99.90
9941;DHT22;5009;50.656;7.188;2023-02-15T20:33:23;6.60;99.90
9941;DHT22;5009;50.656;7.188;2023-02-15T20:35:49;6.50;99.90
9941;DHT22;5009;50.656;7.188;2023-02-15T20:38:21;6.40;99.90
9941;DHT22;5009;50.656;7.188;2023-02-15T20:40:47;6.30;99.90
9941;DHT22;5009;50.656;7.188;2023-02-15T20:43:32;6.30;99.90
9941;DHT22;5009;50.656;7.188;2023-02-15T20:45:58;6.30;99.90
9941;DHT22;5009;50.656;7.188;2023-02-15T20:48:24;6.20;99.90
9941;DHT22;5009;50.656;7.188;2023-02-15T20:50:50;6.20;99.90
9941;DHT22;5009;50.656;7.188;2023-02-15T20:53:18;6.10;99.90
9941;DHT22;5009;50.656;7.188;2023-02-15T20:55:45;6.00;99.90
9941;DHT22;5009;50.656;7.188;2023-02-15T20:58:21;6.00;99.90
9941;DHT22;5009;50.656;7.188;2023-02-15T21:00:47;5.90;99.90
9941;DHT22;5009;50.656;7.188;2023-02-15T21:03:13;5.90;99.90
9941;DHT22;5009;50.656;7.188;2023-02-15T21:05:39;5.90;99.90
9941;DHT22;5009;50.656;7.188;2023-02-15T21:08:17;5.90;99.90
9941;DHT22;5009;50.656;7.188;2023-02-15T21:10:44;5.80;99.90
9941;DHT22;5009;50.656;7.188;2023-02-15T21:13:22;5.80;99.90
9941;DHT22;5009;50.656;7.188;2023-02-15T21:15:50;5.70;99.90
9941;DHT22;5009;50.656;7.188;2023-02-15T21:18:29;5.60;99.90
9941;DHT22;5009;50.656;7.188;2023-02-15T21:20:57;5.60;99.90
9941;DHT22;5009;50.656;7.188;2023-02-15T21:23:27;5.60;99.90
9941;DHT22;5009;50.656;7.188;2023-02-15T21:25:54;5.60;99.90
9941;DHT22;5009;50.656;7.188;2023-02-15T21:28:26;5.50;99.90
9941;DHT22;5009;50.656;7.188;2023-02-15T21:30:52;5.50;99.90
9941;DHT22;5009;50.656;7.188;2023-02-15T21:33:18;5.50;99.90
9941;DHT22;5009;50.656;7.188;2023-02-15T21:35:53;5.40;99.90
9941;DHT22;5009;50.656;7.188;2023-02-15T21:38:24;5.30;99.90
9941;DHT22;5009;50.656;7.188;2023-02-15T21:40:51;5.30;99.90
9941;DHT22;5009;50.656;7.188;2023-02-15T21:43:22;5.30;99.90
9941;DHT22;5009;50.656;7.188;2023-02-15T21:46:12;5.30;99.90
9941;DHT22;5009;50.656;7.188;2023-02-15T21:48:57;5.20;99.90
9941;DHT22;5009;50.656;7.188;2023-02-15T21:51:22;5.30;99.90
9941;DHT22;5009;50.656;7.188;2023-02-15T21:54:10;5.20;99.90
9941;DHT22;5009;50.656;7.188;2023-02-15T21:56:37;5.10;99.90
9941;DHT22;5009;50.656;7.188;2023-02-15T21:59:11;5.00;99.90
